Time;durP1;ratioP1;P1;durP2;ratioP2;P2;SDS_P1;SDS_P2;PMS_P1;PMS_P2;Temp;Humidity;BMP_temperature;BMP_pressure;BME280_temperature;BME280_humidity;BME280_pressure;Samples;Min_cycle;Max_cycle;Signal;HPM_P1;HPM_P2
2022/08/13 00:00:14;;;;;;;0.90;0.38;;;;;;;;;;5003306;28;20022;-82
2022/08/13 00:02:43;;;;;;;1.27;0.50;;;;;;;;;;5002108;28;20041;-83
2022/08/13 00:05:11;;;;;;;0.93;0.70;;;;;;;;;;5000777;28;20042;-80
2022/08/13 00:07:37;;;;;;;0.68;0.68;;;;;;;;;;5001932;28;20430;-79
2022/08/13 00:10:05;;;;;;;1.85;0.40;;;;;;;;;;5002569;28;20038;-80
2022/08/13 00:15:29;;;;;;;0.35;0.28;;;;;;;;;;5003968;28;20061;-81
2022/08/13 00:17:57;;;;;;;1.25;0.65;;;;;;;;;;5004606;28;20031;-82
2022/08/13 00:20:28;;;;;;;0.30;0.30;;;;;;;;;;5002301;28;20109;-82
2022/08/13 00:22:56;;;;;;;0.50;0.50;;;;;;;;;;5003981;28;20026;-82
2022/08/13 00:25:24;;;;;;;0.50;0.30;;;;;;;;;;5003619;28;20353;-82
2022/08/13 00:27:57;;;;;;;4.75;1.20;;;;;;;;;;5003129;28;20357;-82
2022/08/13 00:30:33;;;;;;;0.30;0.30;;;;;;;;;;5003455;28;20022;-82
2022/08/13 00:33:15;;;;;;;0.80;0.38;;;;;;;;;;4989152;28;20084;-83
2022/08/13 00:35:48;;;;;;;;;;;;;;;;;;5003613;28;20066;-81
2022/08/13 00:38:17;;;;;;;;;;;;;;;;;;5003384;28;19909;-83
2022/08/13 00:40:50;;;;;;;0.55;0.45;;;;;;;;;;5004321;28;19992;-81
2022/08/13 00:43:17;;;;;;;0.63;0.43;;;;;;;;;;5002456;28;20018;-82
2022/08/13 00:45:43;;;;;;;0.20;0.20;;;;;;;;;;5003158;28;20081;-81
2022/08/13 00:50:58;;;;;;;2.10;0.88;;;;;;;;;;5008507;28;20103;-82
2022/08/13 00:53:24;;;;;;;0.68;0.68;;;;;;;;;;5001658;28;20444;-79
2022/08/13 00:55:59;;;;;;;0.45;0.38;;;;;;;;;;4994535;28;20035;-81
2022/08/13 00:58:28;;;;;;;0.38;0.38;;;;;;;;;;4989662;28;20419;-80
2022/08/13 01:00:59;;;;;;;1.23;0.70;;;;;;;;;;4993651;28;20057;-83
2022/08/13 01:03:32;;;;;;;0.45;0.35;;;;;;;;;;4995421;28;20022;-83
2022/08/13 01:06:06;;;;;;;0.22;0.22;;;;;;;;;;4996082;28;20026;-82
2022/08/13 01:08:40;;;;;;;0.95;0.80;;;;;;;;;;4992675;28;20030;-81
2022/08/13 01:11:08;;;;;;;0.57;0.45;;;;;;;;;;4995841;28;20032;-82
2022/08/13 01:13:35;;;;;;;0.65;0.40;;;;;;;;;;4993581;28;20539;-78
2022/08/13 01:16:06;;;;;;;0.38;0.38;;;;;;;;;;4988227;28;20030;-83
2022/08/13 01:18:36;;;;;;;0.52;0.52;;;;;;;;;;4987662;28;20018;-84
2022/08/13 01:21:17;;;;;;;0.50;0.30;;;;;;;;;;4990755;28;20034;-84
2022/08/13 01:23:50;;;;;;;0.10;0.10;;;;;;;;;;4989317;28;20018;-84
2022/08/13 01:26:17;;;;;;;0.30;0.30;;;;;;;;;;4986040;28;20108;-81
2022/08/13 01:28:44;;;;;;;0.68;0.45;;;;;;;;;;4998276;28;20035;-84
2022/08/13 01:31:14;;;;;;;0.40;0.40;;;;;;;;;;4983943;28;20097;-81
2022/08/13 01:33:41;;;;;;;0.47;0.47;;;;;;;;;;4993428;28;20034;-82
2022/08/13 01:36:08;;;;;;;0.20;0.20;;;;;;;;;;4988628;28;20026;-80
2022/08/13 01:38:37;;;;;;;1.45;0.65;;;;;;;;;;4984896;28;20026;-85
2022/08/13 01:41:08;;;;;;;0.30;0.30;;;;;;;;;;4988967;28;20018;-82
2022/08/13 01:43:43;;;;;;;0.80;0.50;;;;;;;;;;4987002;28;20379;-83
2022/08/13 01:46:10;;;;;;;0.50;0.50;;;;;;;;;;4977859;28;20117;-82
2022/08/13 01:51:32;;;;;;;0.93;0.93;;;;;;;;;;4993790;28;20033;-82
2022/08/13 01:54:01;;;;;;;0.95;0.82;;;;;;;;;;4994220;28;20390;-82
2022/08/13 01:56:31;;;;;;;0.40;0.32;;;;;;;;;;4990206;28;20469;-82
2022/08/13 01:59:01;;;;;;;0.40;0.40;;;;;;;;;;4994221;28;20458;-82
2022/08/13 02:01:27;;;;;;;1.45;1.10;;;;;;;;;;5001959;28;20115;-81
2022/08/13 02:03:57;;;;;;;0.60;0.60;;;;;;;;;;5000240;28;20086;-82
2022/08/13 02:06:27;;;;;;;0.90;0.50;;;;;;;;;;4993558;28;20030;-81
2022/08/13 02:08:57;;;;;;;1.17;0.63;;;;;;;;;;4987394;28;20045;-82
2022/08/13 02:11:28;;;;;;;1.25;0.80;;;;;;;;;;4995096;28;20026;-82
2022/08/13 02:13:54;;;;;;;1.02;0.43;;;;;;;;;;4994364;28;20030;-83
2022/08/13 02:16:20;;;;;;;1.27;0.73;;;;;;;;;;4993236;28;20033;-82
2022/08/13 02:18:53;;;;;;;0.65;0.45;;;;;;;;;;4994837;28;20027;-83
2022/08/13 02:21:22;;;;;;;1.17;0.55;;;;;;;;;;4995224;28;20089;-81
2022/08/13 02:23:58;;;;;;;0.90;0.60;;;;;;;;;;4994747;28;20470;-79
2022/08/13 02:26:27;;;;;;;1.60;0.80;;;;;;;;;;4994521;28;20524;-80
2022/08/13 02:29:00;;;;;;;0.40;0.40;;;;;;;;;;4993398;28;20125;-81
2022/08/13 02:31:28;;;;;;;1.25;0.60;;;;;;;;;;4991572;28;20101;-82
2022/08/13 02:33:56;;;;;;;1.00;0.90;;;;;;;;;;4992697;28;20089;-82
2022/08/13 02:36:25;;;;;;;0.40;0.40;;;;;;;;;;4995218;28;20057;-83
2022/08/13 02:39:01;;;;;;;0.43;0.43;;;;;;;;;;4994722;28;20034;-84
2022/08/13 02:41:42;;;;;;;0.35;0.22;;;;;;;;;;4993199;28;20435;-84
2022/08/13 02:44:13;;;;;;;0.45;0.30;;;;;;;;;;4992563;28;20022;-84
2022/08/13 02:46:42;;;;;;;0.40;0.30;;;;;;;;;;4990866;28;21683;-82
2022/08/13 02:49:12;;;;;;;0.50;0.50;;;;;;;;;;4984339;28;20030;-83
2022/08/13 02:51:38;;;;;;;2.83;0.43;;;;;;;;;;4994058;28;20037;-83
2022/08/13 02:54:04;;;;;;;0.57;0.57;;;;;;;;;;4992780;28;20361;-80
2022/08/13 02:56:29;;;;;;;0.43;0.43;;;;;;;;;;4993754;28;20461;-85
2022/08/13 02:58:56;;;;;;;1.23;0.90;;;;;;;;;;4994489;28;20041;-79
2022/08/13 03:01:23;;;;;;;1.48;0.77;;;;;;;;;;4992738;28;20476;-82
2022/08/13 03:03:53;;;;;;;0.68;0.43;;;;;;;;;;4990156;28;20027;-84
2022/08/13 03:06:20;;;;;;;0.75;0.65;;;;;;;;;;4993548;28;20104;-84
2022/08/13 03:08:51;;;;;;;0.65;0.57;;;;;;;;;;4994468;28;20030;-82
2022/08/13 03:11:17;;;;;;;0.70;0.50;;;;;;;;;;4993613;28;20496;-81
2022/08/13 03:13:47;;;;;;;0.60;0.60;;;;;;;;;;4986859;28;20034;-85
2022/08/13 03:16:21;;;;;;;0.40;0.40;;;;;;;;;;4992111;28;20342;-83
2022/08/13 03:18:49;;;;;;;0.70;0.70;;;;;;;;;;4989169;28;20026;-83
2022/08/13 03:21:16;;;;;;;0.65;0.65;;;;;;;;;;4983751;28;20030;-82
2022/08/13 03:23:43;;;;;;;0.40;0.40;;;;;;;;;;4992943;28;20065;-81
2022/08/13 03:26:14;;;;;;;0.55;0.55;;;;;;;;;;4994171;28;20611;-81
2022/08/13 03:28:42;;;;;;;0.60;0.57;;;;;;;;;;4994586;28;20030;-82
2022/08/13 03:31:08;;;;;;;0.75;0.52;;;;;;;;;;4993409;28;20026;-81
2022/08/13 03:33:37;;;;;;;0.40;0.40;;;;;;;;;;4992834;28;20422;-79
2022/08/13 03:36:04;;;;;;;0.65;0.40;;;;;;;;;;4994475;28;20030;-82
2022/08/13 03:38:29;;;;;;;0.40;0.40;;;;;;;;;;4994294;28;20059;-85
2022/08/13 03:41:00;;;;;;;0.50;0.50;;;;;;;;;;4993400;28;20030;-82
2022/08/13 03:43:27;;;;;;;0.40;0.40;;;;;;;;;;4990867;28;20091;-82
2022/08/13 03:45:54;;;;;;;0.47;0.47;;;;;;;;;;4992221;28;20499;-80
2022/08/13 03:48:21;;;;;;;0.40;0.40;;;;;;;;;;4995120;28;20030;-83
2022/08/13 03:50:50;;;;;;;0.68;0.40;;;;;;;;;;4993751;28;20113;-82
2022/08/13 03:53:20;;;;;;;1.25;0.57;;;;;;;;;;4992591;28;20034;-80
2022/08/13 03:55:46;;;;;;;0.90;0.68;;;;;;;;;;4990516;28;20082;-81
2022/08/13 03:58:14;;;;;;;0.70;0.43;;;;;;;;;;4994101;28;20529;-88
2022/08/13 04:00:42;;;;;;;0.88;0.82;;;;;;;;;;4994214;28;20334;-82
2022/08/13 04:03:15;;;;;;;1.42;0.38;;;;;;;;;;4997289;28;20076;-86
2022/08/13 04:05:40;;;;;;;0.82;0.60;;;;;;;;;;4991435;28;20040;-81
2022/08/13 04:08:06;;;;;;;1.17;1.08;;;;;;;;;;4983811;28;20109;-83
2022/08/13 04:10:31;;;;;;;1.33;0.82;;;;;;;;;;4974954;28;20054;-82
2022/08/13 04:12:56;;;;;;;1.05;0.32;;;;;;;;;;4987741;28;20030;-84
2022/08/13 04:15:24;;;;;;;0.47;0.40;;;;;;;;;;4981660;28;20457;-81
2022/08/13 04:17:53;;;;;;;0.47;0.47;;;;;;;;;;4986277;28;20022;-79
2022/08/13 04:20:19;;;;;;;1.02;0.75;;;;;;;;;;5008094;28;20061;-81
2022/08/13 04:22:44;;;;;;;1.00;0.77;;;;;;;;;;4994238;28;20034;-84
2022/08/13 04:25:11;;;;;;;0.50;0.50;;;;;;;;;;4993304;28;20030;-84
2022/08/13 04:27:38;;;;;;;0.57;0.57;;;;;;;;;;4993530;28;20034;-84
2022/08/13 04:30:07;;;;;;;0.60;0.57;;;;;;;;;;4994117;28;20519;-81
2022/08/13 04:32:42;;;;;;;1.02;0.93;;;;;;;;;;4993258;28;20061;-81
2022/08/13 04:35:09;;;;;;;0.68;0.68;;;;;;;;;;4990620;28;20085;-82
2022/08/13 04:37:37;;;;;;;1.60;1.00;;;;;;;;;;4988237;28;20038;-85
2022/08/13 04:40:03;;;;;;;0.50;0.40;;;;;;;;;;4994393;28;20042;-84
2022/08/13 04:42:43;;;;;;;0.98;0.52;;;;;;;;;;4989825;28;20030;-83
2022/08/13 04:45:09;;;;;;;0.40;0.40;;;;;;;;;;4997359;28;20037;-82
2022/08/13 04:47:37;;;;;;;1.05;0.90;;;;;;;;;;4985621;28;20026;-83
2022/08/13 04:50:05;;;;;;;0.43;0.43;;;;;;;;;;4991676;28;20029;-81
2022/08/13 04:52:32;;;;;;;1.38;1.00;;;;;;;;;;4995824;28;20034;-82
2022/08/13 04:55:01;;;;;;;0.70;0.70;;;;;;;;;;4995020;28;20046;-80
2022/08/13 04:57:32;;;;;;;4.57;1.15;;;;;;;;;;4996897;28;20064;-82
2022/08/13 05:00:02;;;;;;;1.45;0.68;;;;;;;;;;4997171;28;20054;-80
2022/08/13 05:02:28;;;;;;;0.88;0.60;;;;;;;;;;4996873;28;20027;-80
2022/08/13 05:04:54;;;;;;;0.57;0.57;;;;;;;;;;4995560;28;20033;-80
2022/08/13 05:07:21;;;;;;;1.33;0.85;;;;;;;;;;4987222;28;20057;-79
2022/08/13 05:09:46;;;;;;;1.30;0.82;;;;;;;;;;4995227;28;20027;-81
2022/08/13 05:12:11;;;;;;;0.90;0.50;;;;;;;;;;4995419;28;20039;-81
2022/08/13 05:14:36;;;;;;;0.45;0.45;;;;;;;;;;4995999;28;20030;-82
2022/08/13 05:17:04;;;;;;;0.30;0.30;;;;;;;;;;4996120;28;20033;-81
2022/08/13 05:19:32;;;;;;;1.35;0.60;;;;;;;;;;4995860;28;20014;-81
2022/08/13 05:22:12;;;;;;;1.25;1.10;;;;;;;;;;4996298;28;20030;-82
2022/08/13 05:24:37;;;;;;;0.95;0.65;;;;;;;;;;4994710;28;20041;-81
2022/08/13 05:27:04;;;;;;;0.40;0.40;;;;;;;;;;4993543;28;20026;-81
2022/08/13 05:29:29;;;;;;;0.60;0.60;;;;;;;;;;4993609;28;20019;-80
2022/08/13 05:31:56;;;;;;;0.63;0.63;;;;;;;;;;4992902;28;20049;-81
2022/08/13 05:34:31;;;;;;;0.80;0.80;;;;;;;;;;4992950;28;20026;-81
2022/08/13 05:37:02;;;;;;;1.50;0.35;;;;;;;;;;4996101;28;20108;-83
2022/08/13 05:39:28;;;;;;;0.50;0.40;;;;;;;;;;4987670;28;20070;-82
2022/08/13 05:41:53;;;;;;;0.60;0.60;;;;;;;;;;4982597;28;20128;-84
2022/08/13 05:44:21;;;;;;;0.50;0.50;;;;;;;;;;4994701;28;20019;-82
2022/08/13 05:46:52;;;;;;;0.90;0.55;;;;;;;;;;4995397;28;20037;-83
2022/08/13 05:49:17;;;;;;;1.00;0.63;;;;;;;;;;4995348;28;20338;-86
2022/08/13 05:51:48;;;;;;;1.20;0.85;;;;;;;;;;4991880;28;20033;-82
2022/08/13 05:54:19;;;;;;;1.33;0.82;;;;;;;;;;4993514;28;20080;-82
2022/08/13 05:56:45;;;;;;;0.50;0.50;;;;;;;;;;4994527;28;20034;-84
2022/08/13 06:03:25;;;;;;;0.60;0.50;;;;;;;;;;4995204;28;20549;-83
2022/08/13 06:04:42;;;;;;;0.40;0.40;;;;;;;;;;4994141;28;20135;-86
2022/08/13 06:07:09;;;;;;;0.30;0.30;;;;;;;;;;4996092;28;20026;-83
2022/08/13 06:09:35;;;;;;;1.60;1.23;;;;;;;;;;4992791;28;20022;-86
2022/08/13 06:12:01;;;;;;;0.60;0.60;;;;;;;;;;4995038;28;20052;-81
2022/08/13 06:14:33;;;;;;;0.88;0.73;;;;;;;;;;4996072;28;20445;-82
2022/08/13 06:17:03;;;;;;;1.08;0.93;;;;;;;;;;4977146;28;20038;-83
2022/08/13 06:19:31;;;;;;;1.05;0.93;;;;;;;;;;4995095;28;20030;-82
2022/08/13 06:22:01;;;;;;;0.38;0.38;;;;;;;;;;4994940;28;20496;-82
2022/08/13 06:24:28;;;;;;;0.65;0.60;;;;;;;;;;4993743;28;20032;-80
2022/08/13 06:26:55;;;;;;;0.50;0.50;;;;;;;;;;4990435;28;20536;-82
2022/08/13 06:29:22;;;;;;;0.70;0.40;;;;;;;;;;4976653;28;20104;-81
2022/08/13 06:31:48;;;;;;;0.68;0.68;;;;;;;;;;4992364;28;20373;-83
2022/08/13 06:34:13;;;;;;;0.32;0.32;;;;;;;;;;4991445;28;20044;-83
2022/08/13 06:36:39;;;;;;;0.45;0.45;;;;;;;;;;4988829;28;20042;-82
2022/08/13 06:39:08;;;;;;;0.70;0.50;;;;;;;;;;4991564;28;20022;-84
2022/08/13 06:41:34;;;;;;;0.40;0.40;;;;;;;;;;4994041;28;20038;-82
2022/08/13 06:43:59;;;;;;;0.50;0.50;;;;;;;;;;4993922;28;20532;-84
2022/08/13 06:46:27;;;;;;;1.95;0.77;;;;;;;;;;4990637;28;20041;-82
2022/08/13 06:49:01;;;;;;;1.00;0.60;;;;;;;;;;4994428;28;20022;-85
2022/08/13 06:51:26;;;;;;;1.13;0.50;;;;;;;;;;4995154;28;20024;-82
2022/08/13 06:53:54;;;;;;;1.25;0.70;;;;;;;;;;4991345;28;20358;-87
2022/08/13 06:56:21;;;;;;;0.47;0.47;;;;;;;;;;4994243;28;20022;-86
2022/08/13 06:58:49;;;;;;;2.85;1.15;;;;;;;;;;4993401;28;20035;-83
2022/08/13 07:01:17;;;;;;;0.75;0.75;;;;;;;;;;4993450;28;20022;-82
2022/08/13 07:03:50;;;;;;;1.38;0.75;;;;;;;;;;4992344;28;20034;-84
2022/08/13 07:06:26;;;;;;;0.70;0.70;;;;;;;;;;4994161;28;20030;-83
2022/08/13 07:09:01;;;;;;;3.30;1.02;;;;;;;;;;4983124;28;20188;-84
2022/08/13 07:11:29;;;;;;;0.40;0.40;;;;;;;;;;5004958;28;20088;-83
2022/08/13 07:13:57;;;;;;;2.63;0.75;;;;;;;;;;4985084;28;20026;-80
2022/08/13 07:16:28;;;;;;;0.93;0.85;;;;;;;;;;4994164;28;20037;-84
2022/08/13 07:18:54;;;;;;;2.72;1.05;;;;;;;;;;4987054;28;20038;-79
2022/08/13 07:21:21;;;;;;;1.00;0.50;;;;;;;;;;4988749;28;22045;-84
2022/08/13 07:23:48;;;;;;;1.10;1.00;;;;;;;;;;4993205;28;20026;-82
2022/08/13 07:26:18;;;;;;;0.68;0.57;;;;;;;;;;4993988;28;20297;-85
2022/08/13 07:28:45;;;;;;;0.90;0.73;;;;;;;;;;4988551;28;20324;-81
2022/08/13 07:31:13;;;;;;;1.10;0.43;;;;;;;;;;5009611;28;20121;-84
2022/08/13 07:33:43;;;;;;;1.40;1.05;;;;;;;;;;5011831;28;20461;-81
2022/08/13 07:36:13;;;;;;;0.60;0.60;;;;;;;;;;4994955;28;20092;-82
2022/08/13 07:38:43;;;;;;;4.38;0.93;;;;;;;;;;5008252;28;20444;-81
2022/08/13 07:41:13;;;;;;;0.52;0.50;;;;;;;;;;4990287;28;20070;-82
2022/08/13 07:43:43;;;;;;;0.40;0.40;;;;;;;;;;4981176;28;20042;-81
2022/08/13 07:46:10;;;;;;;0.50;0.50;;;;;;;;;;4990303;28;20198;-86
2022/08/13 07:48:41;;;;;;;0.40;0.40;;;;;;;;;;4992948;28;20037;-84
2022/08/13 07:51:12;;;;;;;2.97;0.60;;;;;;;;;;4976596;28;20077;-85
2022/08/13 07:53:39;;;;;;;0.50;0.50;;;;;;;;;;4985212;28;20046;-87
2022/08/13 07:56:08;;;;;;;0.22;0.22;;;;;;;;;;4969033;28;20097;-85
2022/08/13 07:58:35;;;;;;;0.60;0.60;;;;;;;;;;4988600;28;20353;-84
2022/08/13 08:01:02;;;;;;;0.68;0.68;;;;;;;;;;4990173;28;20492;-82
2022/08/13 08:03:42;;;;;;;0.30;0.30;;;;;;;;;;4990057;28;20030;-86
2022/08/13 08:06:18;;;;;;;0.32;0.32;;;;;;;;;;4977818;28;20462;-84
2022/08/13 08:08:45;;;;;;;0.63;0.43;;;;;;;;;;4973772;28;20109;-86
2022/08/13 08:12:30;;;;;;;0.40;0.40;;;;;;;;;;4987617;28;20046;-84
2022/08/13 08:14:04;;;;;;;0.60;0.60;;;;;;;;;;4991356;28;20026;-86
2022/08/13 08:16:30;;;;;;;0.50;0.50;;;;;;;;;;4991911;28;20108;-85
2022/08/13 08:19:01;;;;;;;0.57;0.57;;;;;;;;;;4996145;28;20017;-86
2022/08/13 08:21:27;;;;;;;0.40;0.40;;;;;;;;;;4992484;28;20037;-83
2022/08/13 08:23:57;;;;;;;0.30;0.30;;;;;;;;;;4995490;28;20030;-87
2022/08/13 08:26:26;;;;;;;1.27;0.73;;;;;;;;;;4996590;28;20449;-82
2022/08/13 08:28:58;;;;;;;0.90;0.50;;;;;;;;;;4996841;28;20289;-85
2022/08/13 08:31:25;;;;;;;0.60;0.30;;;;;;;;;;4996188;28;20026;-86
2022/08/13 08:33:56;;;;;;;0.30;0.30;;;;;;;;;;4993385;28;20030;-85
2022/08/13 08:36:21;;;;;;;0.50;0.50;;;;;;;;;;4992801;28;20218;-84
2022/08/13 08:44:23;;;;;;;0.30;0.30;;;;;;;;;;4993510;28;20103;-83
2022/08/13 08:46:54;;;;;;;0.57;0.40;;;;;;;;;;4993737;28;20037;-83
2022/08/13 08:49:26;;;;;;;0.40;0.40;;;;;;;;;;4994706;28;20030;-81
2022/08/13 08:51:53;;;;;;;0.30;0.30;;;;;;;;;;4989864;28;20034;-83
2022/08/13 08:54:20;;;;;;;0.28;0.28;;;;;;;;;;4996912;28;20114;-85
2022/08/13 08:57:05;;;;;;;0.50;0.50;;;;;;;;;;4994597;28;20045;-83
2022/08/13 08:59:35;;;;;;;0.43;0.43;;;;;;;;;;5003415;28;20030;-87
2022/08/13 09:02:02;;;;;;;0.47;0.47;;;;;;;;;;4995496;28;20132;-83
2022/08/13 09:04:29;;;;;;;0.43;0.43;;;;;;;;;;4995197;28;20490;-84
2022/08/13 09:06:57;;;;;;;0.45;0.40;;;;;;;;;;4994819;28;20069;-85
2022/08/13 09:09:25;;;;;;;0.85;0.60;;;;;;;;;;5005202;28;20027;-85
2022/08/13 09:12:09;;;;;;;0.30;0.30;;;;;;;;;;4995877;28;20479;-84
2022/08/13 09:14:39;;;;;;;0.50;0.50;;;;;;;;;;5013541;28;20056;-85
2022/08/13 09:17:20;;;;;;;0.40;0.40;;;;;;;;;;4989774;28;20030;-84
2022/08/13 09:22:40;;;;;;;0.40;0.40;;;;;;;;;;4986988;28;20038;-80
2022/08/13 09:25:10;;;;;;;0.60;0.60;;;;;;;;;;4989974;28;20038;-79
2022/08/13 09:27:54;;;;;;;1.25;0.55;;;;;;;;;;4967791;28;20090;-81
2022/08/13 09:30:20;;;;;;;1.25;1.15;;;;;;;;;;4968116;28;20073;-85
2022/08/13 09:32:48;;;;;;;0.32;0.30;;;;;;;;;;4957492;28;20054;-82
2022/08/13 09:35:16;;;;;;;0.40;0.40;;;;;;;;;;4968356;28;20096;-83
2022/08/13 09:37:45;;;;;;;0.45;0.45;;;;;;;;;;4953085;28;20458;-82
2022/08/13 09:40:14;;;;;;;0.50;0.50;;;;;;;;;;4969402;28;20035;-82
2022/08/13 09:43:07;;;;;;;0.57;0.57;;;;;;;;;;4952731;28;20065;-82
2022/08/13 09:45:33;;;;;;;0.40;0.40;;;;;;;;;;4949740;28;20401;-82
2022/08/13 09:47:59;;;;;;;0.70;0.70;;;;;;;;;;4968905;28;20054;-83
2022/08/13 09:50:25;;;;;;;1.67;0.60;;;;;;;;;;4967987;28;20031;-83
2022/08/13 09:52:56;;;;;;;0.80;0.68;;;;;;;;;;4972583;28;20130;-84
2022/08/13 09:55:43;;;;;;;0.50;0.50;;;;;;;;;;4920805;29;20122;-88
2022/08/13 09:58:33;;;;;;;0.68;0.68;;;;;;;;;;4913762;29;20040;-82
2022/08/13 10:01:00;;;;;;;0.50;0.50;;;;;;;;;;4915882;29;20044;-84
2022/08/13 10:06:57;;;;;;;0.30;0.30;;;;;;;;;;4930153;29;20071;-86
2022/08/13 10:09:39;;;;;;;0.47;0.47;;;;;;;;;;4931725;29;20071;-88
2022/08/13 10:12:26;;;;;;;0.28;0.28;;;;;;;;;;4916475;29;20134;-85
2022/08/13 10:14:53;;;;;;;0.40;0.40;;;;;;;;;;4929077;29;20459;-85
2022/08/13 10:17:45;;;;;;;0.82;0.68;;;;;;;;;;4933777;29;20109;-81
2022/08/13 10:20:12;;;;;;;0.52;0.52;;;;;;;;;;4954425;29;20075;-81
2022/08/13 10:26:11;;;;;;;0.80;0.73;;;;;;;;;;4936531;28;20040;-81
2022/08/13 10:28:47;;;;;;;0.70;0.70;;;;;;;;;;4992991;28;20044;-80
2022/08/13 10:31:12;;;;;;;0.60;0.60;;;;;;;;;;4979934;28;20030;-82
2022/08/13 10:33:54;;;;;;;0.45;0.45;;;;;;;;;;4987949;28;20045;-80
2022/08/13 10:36:26;;;;;;;0.55;0.55;;;;;;;;;;4987819;28;20042;-84
2022/08/13 10:38:52;;;;;;;0.40;0.40;;;;;;;;;;4971484;28;20053;-85
2022/08/13 10:41:20;;;;;;;0.60;0.55;;;;;;;;;;4987978;28;20112;-79
2022/08/13 10:44:03;;;;;;;0.60;0.60;;;;;;;;;;4972721;28;20042;-84
2022/08/13 10:46:36;;;;;;;1.30;0.70;;;;;;;;;;4988823;28;20434;-82
2022/08/13 10:49:01;;;;;;;0.38;0.38;;;;;;;;;;4960068;28;20446;-83
2022/08/13 10:51:58;;;;;;;0.40;0.40;;;;;;;;;;4991134;28;20109;-83
2022/08/13 10:54:33;;;;;;;0.45;0.45;;;;;;;;;;4990099;28;20145;-84
2022/08/13 10:57:01;;;;;;;0.50;0.50;;;;;;;;;;4991598;28;20038;-85
2022/08/13 10:59:36;;;;;;;0.75;0.57;;;;;;;;;;4967745;28;20121;-85
2022/08/13 11:02:13;;;;;;;0.40;0.40;;;;;;;;;;4937157;28;20031;-84
2022/08/13 11:04:39;;;;;;;0.55;0.40;;;;;;;;;;4972567;28;20045;-83
2022/08/13 11:07:10;;;;;;;0.50;0.50;;;;;;;;;;4973464;28;20568;-81
2022/08/13 11:09:38;;;;;;;0.45;0.45;;;;;;;;;;4956009;28;20031;-81
2022/08/13 11:12:05;;;;;;;0.57;0.57;;;;;;;;;;4969611;28;21638;-81
2022/08/13 11:14:32;;;;;;;1.30;0.50;;;;;;;;;;4942833;28;20038;-80
2022/08/13 11:17:03;;;;;;;0.32;0.32;;;;;;;;;;4950345;28;20109;-80
2022/08/13 11:19:40;;;;;;;0.30;0.30;;;;;;;;;;4966768;28;20026;-80
2022/08/13 11:22:32;;;;;;;0.40;0.40;;;;;;;;;;4967577;28;20054;-81
2022/08/13 11:25:08;;;;;;;5.25;1.73;;;;;;;;;;4953091;28;20056;-81
2022/08/13 11:27:58;;;;;;;0.40;0.40;;;;;;;;;;4958917;28;20050;-82
2022/08/13 11:30:23;;;;;;;0.30;0.30;;;;;;;;;;4961204;28;20038;-81
2022/08/13 11:32:54;;;;;;;0.50;0.50;;;;;;;;;;4977317;28;20128;-77
2022/08/13 11:35:59;;;;;;;0.73;0.57;;;;;;;;;;5004010;28;20108;-84
2022/08/13 11:38:24;;;;;;;1.25;0.60;;;;;;;;;;5003197;28;20092;-79
2022/08/13 11:40:53;;;;;;;0.60;0.60;;;;;;;;;;5005864;28;20029;-81
2022/08/13 11:43:28;;;;;;;0.75;0.75;;;;;;;;;;4991439;28;20499;-82
2022/08/13 11:45:58;;;;;;;0.40;0.40;;;;;;;;;;5012951;28;20030;-81
2022/08/13 11:48:24;;;;;;;0.40;0.40;;;;;;;;;;5015899;28;20192;-82
2022/08/13 11:50:52;;;;;;;0.80;0.80;;;;;;;;;;5008738;28;20125;-79
2022/08/13 11:53:23;;;;;;;0.50;0.50;;;;;;;;;;4997112;28;20057;-81
2022/08/13 11:55:52;;;;;;;0.50;0.50;;;;;;;;;;4999130;28;20026;-83
2022/08/13 11:58:20;;;;;;;0.60;0.60;;;;;;;;;;4998083;28;20022;-80
2022/08/13 12:00:48;;;;;;;0.50;0.50;;;;;;;;;;4999229;28;20026;-83
2022/08/13 12:03:14;;;;;;;0.40;0.40;;;;;;;;;;4998100;28;20037;-82
2022/08/13 12:05:42;;;;;;;0.50;0.50;;;;;;;;;;4997982;28;20353;-83
2022/08/13 12:08:37;;;;;;;0.60;0.60;;;;;;;;;;4996431;28;20045;-81
2022/08/13 12:11:06;;;;;;;0.50;0.50;;;;;;;;;;4989669;28;20456;-84
2022/08/13 12:13:34;;;;;;;0.70;0.70;;;;;;;;;;4989598;28;20110;-80
2022/08/13 12:16:00;;;;;;;0.50;0.50;;;;;;;;;;4989068;28;20037;-84
2022/08/13 12:18:37;;;;;;;0.70;0.70;;;;;;;;;;4973603;28;20038;-80
2022/08/13 12:21:20;;;;;;;0.40;0.40;;;;;;;;;;4989868;28;20030;-83
2022/08/13 12:23:48;;;;;;;0.60;0.60;;;;;;;;;;4988622;28;20361;-82
2022/08/13 12:26:24;;;;;;;1.88;0.80;;;;;;;;;;4989117;28;20121;-83
2022/08/13 12:28:50;;;;;;;1.95;1.27;;;;;;;;;;4991979;28;20113;-85
2022/08/13 12:31:17;;;;;;;0.57;0.57;;;;;;;;;;4993380;28;20019;-81
2022/08/13 12:33:42;;;;;;;4.05;1.25;;;;;;;;;;4984150;28;20053;-83
2022/08/13 12:36:13;;;;;;;0.77;0.77;;;;;;;;;;4991023;28;20066;-82
2022/08/13 12:38:38;;;;;;;;;;;;;;;;;;4993666;28;20033;-81
2022/08/13 12:41:07;;;;;;;0.70;0.70;;;;;;;;;;4991041;28;19917;-79
2022/08/13 12:43:32;;;;;;;2.03;0.77;;;;;;;;;;4972663;28;20042;-81
2022/08/13 12:46:11;;;;;;;0.65;0.65;;;;;;;;;;4989610;28;20105;-82
2022/08/13 12:48:36;;;;;;;0.75;0.70;;;;;;;;;;4986279;28;20018;-78
2022/08/13 12:51:04;;;;;;;0.60;0.60;;;;;;;;;;4997352;28;20040;-81
2022/08/13 12:53:32;;;;;;;1.33;0.70;;;;;;;;;;4997741;28;20418;-79
2022/08/13 12:55:57;;;;;;;0.63;0.60;;;;;;;;;;4994266;28;20022;-78
2022/08/13 12:58:25;;;;;;;0.75;0.65;;;;;;;;;;4994558;28;20089;-78
2022/08/13 13:00:53;;;;;;;0.55;0.55;;;;;;;;;;4996951;28;20022;-80
2022/08/13 13:03:20;;;;;;;0.65;0.65;;;;;;;;;;4995155;28;20034;-79
2022/08/13 13:05:48;;;;;;;3.22;0.82;;;;;;;;;;4978331;28;20449;-80
2022/08/13 13:08:23;;;;;;;0.73;0.70;;;;;;;;;;4995525;28;20038;-78
2022/08/13 13:10:50;;;;;;;0.57;0.55;;;;;;;;;;4994608;28;20413;-79
2022/08/13 13:13:27;;;;;;;3.13;1.58;;;;;;;;;;4994993;28;20038;-79
2022/08/13 13:15:56;;;;;;;0.70;0.60;;;;;;;;;;4962336;28;20424;-78
2022/08/13 13:18:36;;;;;;;;;;;;;;;;;;4980808;28;20038;-78
2022/08/13 13:21:04;;;;;;;0.47;0.47;;;;;;;;;;4995376;28;19933;-78
2022/08/13 13:23:31;;;;;;;1.20;1.10;;;;;;;;;;4994375;28;20441;-80
2022/08/13 13:26:14;;;;;;;0.70;0.70;;;;;;;;;;4995232;28;20034;-81
2022/08/13 13:28:42;;;;;;;0.45;0.43;;;;;;;;;;4994134;28;20034;-80
2022/08/13 13:31:07;;;;;;;1.48;0.60;;;;;;;;;;4977864;28;20603;-80
2022/08/13 13:33:33;;;;;;;0.60;0.50;;;;;;;;;;4995261;28;20042;-80
2022/08/13 13:35:58;;;;;;;0.63;0.60;;;;;;;;;;4996937;28;20019;-79
2022/08/13 13:38:27;;;;;;;0.60;0.60;;;;;;;;;;4996926;28;20037;-79
2022/08/13 13:40:53;;;;;;;0.57;0.57;;;;;;;;;;4996013;28;20026;-78
2022/08/13 13:43:23;;;;;;;0.70;0.70;;;;;;;;;;4995463;28;20080;-79
2022/08/13 13:45:49;;;;;;;0.65;0.50;;;;;;;;;;4995311;28;20034;-79
2022/08/13 13:48:27;;;;;;;0.50;0.50;;;;;;;;;;4994246;28;20030;-79
2022/08/13 13:50:58;;;;;;;0.70;0.70;;;;;;;;;;4997005;28;20022;-80
2022/08/13 13:53:26;;;;;;;0.80;0.80;;;;;;;;;;4996798;28;20030;-79
2022/08/13 13:55:52;;;;;;;0.82;0.80;;;;;;;;;;4996671;28;20040;-80
2022/08/13 13:58:19;;;;;;;0.52;0.52;;;;;;;;;;4996748;28;20030;-81
2022/08/13 14:00:45;;;;;;;0.95;0.95;;;;;;;;;;4994179;28;20077;-80
2022/08/13 14:03:22;;;;;;;0.65;0.65;;;;;;;;;;4994933;28;20035;-79
2022/08/13 14:05:48;;;;;;;1.33;0.80;;;;;;;;;;4995879;28;20437;-81
2022/08/13 14:08:13;;;;;;;0.65;0.63;;;;;;;;;;4996498;28;20043;-80
2022/08/13 14:10:42;;;;;;;0.63;0.63;;;;;;;;;;4995441;28;20022;-80
2022/08/13 14:13:09;;;;;;;0.50;0.50;;;;;;;;;;4979504;28;20050;-78
2022/08/13 14:15:35;;;;;;;0.90;0.60;;;;;;;;;;4995391;28;20061;-80
2022/08/13 14:18:04;;;;;;;0.47;0.47;;;;;;;;;;4993898;28;20061;-79
2022/08/13 14:20:29;;;;;;;0.80;0.80;;;;;;;;;;4994651;28;20062;-80
2022/08/13 14:22:55;;;;;;;7.15;0.80;;;;;;;;;;4995481;28;20061;-80
2022/08/13 14:25:21;;;;;;;0.68;0.68;;;;;;;;;;4996037;28;20070;-81
2022/08/13 14:27:47;;;;;;;0.57;0.57;;;;;;;;;;4996065;28;20026;-79
2022/08/13 14:30:13;;;;;;;0.43;0.40;;;;;;;;;;4994833;28;20026;-78
2022/08/13 14:32:39;;;;;;;2.05;0.73;;;;;;;;;;4994075;28;20044;-79
2022/08/13 14:35:09;;;;;;;0.50;0.50;;;;;;;;;;4995906;28;20216;-79
2022/08/13 14:37:44;;;;;;;2.53;0.45;;;;;;;;;;4978909;28;20080;-78
2022/08/13 14:40:18;;;;;;;0.95;0.90;;;;;;;;;;4995015;28;20058;-79
2022/08/13 14:42:52;;;;;;;0.50;0.50;;;;;;;;;;4994857;28;20022;-77
2022/08/13 14:48:07;;;;;;;0.40;0.40;;;;;;;;;;4994941;28;20064;-79
2022/08/13 14:50:34;;;;;;;0.52;0.50;;;;;;;;;;4992990;28;20422;-78
2022/08/13 14:53:00;;;;;;;0.70;0.70;;;;;;;;;;4994743;28;20057;-79
2022/08/13 14:55:27;;;;;;;0.65;0.60;;;;;;;;;;4994900;28;20037;-78
2022/08/13 14:57:54;;;;;;;1.02;0.77;;;;;;;;;;4994746;28;20030;-78
2022/08/13 15:00:22;;;;;;;1.13;0.95;;;;;;;;;;4994324;28;20026;-79
2022/08/13 15:02:49;;;;;;;0.50;0.50;;;;;;;;;;4993863;28;20105;-77
2022/08/13 15:05:16;;;;;;;0.95;0.65;;;;;;;;;;4994553;28;20034;-80
2022/08/13 15:07:44;;;;;;;0.65;0.63;;;;;;;;;;4994615;28;20037;-79
2022/08/13 15:10:15;;;;;;;0.88;0.60;;;;;;;;;;4994073;28;20041;-79
2022/08/13 15:12:44;;;;;;;0.68;0.57;;;;;;;;;;4994843;28;20049;-79
2022/08/13 15:15:13;;;;;;;0.60;0.60;;;;;;;;;;4994146;28;19988;-79
2022/08/13 15:17:43;;;;;;;0.60;0.60;;;;;;;;;;4993800;28;20469;-79
2022/08/13 15:20:16;;;;;;;0.75;0.75;;;;;;;;;;4994541;28;20026;-80
2022/08/13 15:22:42;;;;;;;0.40;0.40;;;;;;;;;;4993672;28;20026;-79
2022/08/13 15:25:11;;;;;;;0.77;0.60;;;;;;;;;;4994195;28;20026;-80
2022/08/13 15:27:41;;;;;;;0.60;0.60;;;;;;;;;;4993329;28;20026;-78